createdAt,value
2019-05-20T00:00:06.688Z,48.99
2019-05-20T00:02:37.362Z,48.80
2019-05-20T00:05:08.399Z,48.76
2019-05-20T00:07:39.133Z,48.98
2019-05-20T00:10:09.993Z,49.05
2019-05-20T00:12:41.009Z,49.17
2019-05-20T00:15:14.710Z,49.36
2019-05-20T00:17:45.335Z,49.39
2019-05-20T00:20:17.506Z,49.30
2019-05-20T00:22:48.446Z,49.55
2019-05-20T00:25:19.785Z,49.50
2019-05-20T00:27:50.543Z,49.78
2019-05-20T00:30:21.360Z,49.75
2019-05-20T00:32:52.563Z,49.87
2019-05-20T00:35:23.587Z,51.03
2019-05-20T00:37:54.313Z,51.57
2019-05-20T00:40:25.108Z,51.75
2019-05-20T00:42:56.356Z,52.09
2019-05-20T00:45:27.803Z,52.18
2019-05-20T00:47:58.232Z,51.97
2019-05-20T00:50:29.267Z,51.35
2019-05-20T00:53:00.311Z,50.59
2019-05-20T00:55:32.665Z,50.20
2019-05-20T00:58:04.421Z,50.52
2019-05-20T01:00:34.991Z,50.37
2019-05-20T01:03:05.795Z,51.30
2019-05-20T01:05:36.734Z,51.45
2019-05-20T01:08:09.212Z,51.00
2019-05-20T01:10:39.959Z,51.22
2019-05-20T01:13:10.981Z,51.60
2019-05-20T01:15:42.189Z,51.81
2019-05-20T01:18:13.573Z,51.72
2019-05-20T01:20:44.787Z,52.07
2019-05-20T01:23:15.365Z,52.34
2019-05-20T01:25:46.172Z,51.55
2019-05-20T01:28:17.521Z,51.96
2019-05-20T01:30:48.458Z,52.19
2019-05-20T01:33:19.700Z,52.08
2019-05-20T01:35:49.996Z,52.26
2019-05-20T01:38:20.859Z,51.97
2019-05-20T01:40:54.254Z,51.23
2019-05-20T01:43:25.099Z,51.04
2019-05-20T01:45:55.825Z,50.71
2019-05-20T01:48:28.606Z,50.94
2019-05-20T01:50:59.135Z,50.50
2019-05-20T01:53:29.969Z,50.26
2019-05-20T01:56:00.805Z,50.45
2019-05-20T01:58:31.952Z,50.39
2019-05-20T02:01:03.190Z,50.91
2019-05-20T02:03:33.923Z,49.99
2019-05-20T02:06:04.759Z,50.17
2019-05-20T02:08:35.493Z,49.87
2019-05-20T02:11:06.328Z,49.88
2019-05-20T02:13:51.195Z,50.41
2019-05-20T02:16:24.280Z,50.02
2019-05-20T02:18:55.030Z,49.16
2019-05-20T02:21:25.578Z,49.28
2019-05-20T02:23:58.772Z,49.54
2019-05-20T02:26:29.560Z,49.60
2019-05-20T02:29:00.261Z,49.74
2019-05-20T02:31:31.332Z,49.96
2019-05-20T02:34:02.174Z,49.78
2019-05-20T02:36:33.106Z,49.95
2019-05-20T02:39:06.509Z,49.90
2019-05-20T02:41:37.247Z,50.03
2019-05-20T02:44:07.863Z,49.72
2019-05-20T02:46:38.235Z,49.11
2019-05-20T02:49:10.047Z,49.39
2019-05-20T02:51:41.085Z,49.18
2019-05-20T02:54:15.433Z,49.12
2019-05-20T02:56:46.334Z,49.38
2019-05-20T02:59:17.184Z,49.61
2019-05-20T03:01:47.623Z,50.08
2019-05-20T03:04:19.239Z,50.52
2019-05-20T03:06:50.398Z,50.11
2019-05-20T03:09:23.382Z,49.89
2019-05-20T03:11:54.072Z,49.60
2019-05-20T03:14:25.260Z,49.82
2019-05-20T03:16:55.849Z,49.09
2019-05-20T03:19:26.930Z,48.84
2019-05-20T03:21:58.972Z,48.71
2019-05-20T03:24:30.112Z,49.09
2019-05-20T03:27:00.928Z,49.28
2019-05-20T03:29:32.120Z,49.00
2019-05-20T03:32:03.797Z,48.78
2019-05-20T03:34:48.333Z,48.39
2019-05-20T03:37:06.771Z,48.80
2019-05-20T03:39:39.332Z,48.42
2019-05-20T03:42:10.654Z,48.47
2019-05-20T03:44:41.086Z,48.52
2019-05-20T03:47:12.352Z,48.85
2019-05-20T03:49:43.412Z,48.78
2019-05-20T03:52:16.583Z,48.52
2019-05-20T03:54:47.529Z,48.93
2019-05-20T03:57:20.714Z,49.86
2019-05-20T03:59:52.261Z,50.25
2019-05-20T04:02:23.508Z,50.11
2019-05-20T04:05:02.038Z,49.88
2019-05-20T04:07:28.144Z,49.76
2019-05-20T04:09:59.096Z,49.87
2019-05-20T04:12:30.146Z,49.65
2019-05-20T04:15:03.274Z,49.26
2019-05-20T04:17:34.269Z,49.08
2019-05-20T04:20:07.745Z,48.75
2019-05-20T04:22:38.279Z,48.70
2019-05-20T04:25:09.191Z,47.96
2019-05-20T04:27:40.530Z,47.50
2019-05-20T04:30:12.724Z,47.24
2019-05-20T04:32:43.673Z,46.95
2019-05-20T04:35:22.315Z,46.82
2019-05-20T04:37:47.509Z,46.58
2019-05-20T04:40:20.268Z,46.69
2019-05-20T04:42:52.733Z,46.25
2019-05-20T04:45:23.431Z,45.31
2019-05-20T04:47:54.206Z,45.23
2019-05-20T04:50:25.405Z,45.04
2019-05-20T04:52:56.243Z,44.22
2019-05-20T04:55:29.487Z,43.56
2019-05-20T04:58:03.881Z,43.41
2019-05-20T05:00:46.213Z,42.84
2019-05-20T05:03:17.345Z,43.11
2019-05-20T05:05:48.988Z,42.43
2019-05-20T05:08:20.824Z,42.34
2019-05-20T05:10:51.893Z,42.60
2019-05-20T05:13:24.380Z,41.64
2019-05-20T05:15:54.805Z,41.72
2019-05-20T05:18:25.786Z,41.66
2019-05-20T05:20:56.769Z,42.16
2019-05-20T05:23:28.126Z,42.21
2019-05-20T05:25:59.154Z,41.41
2019-05-20T05:28:30.307Z,40.88
2019-05-20T05:31:00.926Z,39.88
2019-05-20T05:33:32.065Z,40.75
2019-05-20T05:36:04.545Z,40.11
2019-05-20T05:38:35.269Z,39.53
2019-05-20T05:41:06.516Z,39.15
2019-05-20T05:43:38.168Z,39.24
2019-05-20T05:46:09.070Z,38.44
2019-05-20T05:48:40.148Z,38.01
2019-05-20T05:51:11.066Z,36.72
2019-05-20T05:53:42.332Z,36.50
2019-05-20T05:56:13.381Z,36.46
2019-05-20T05:58:44.409Z,36.30
2019-05-20T06:01:16.474Z,36.71
2019-05-20T06:03:47.614Z,36.99
2019-05-20T06:06:18.460Z,36.61
2019-05-20T06:08:51.341Z,36.15
2019-05-20T06:11:24.381Z,35.85
2019-05-20T06:13:55.034Z,35.42
2019-05-20T06:16:36.046Z,35.82
2019-05-20T06:18:58.286Z,35.17
2019-05-20T06:21:29.807Z,35.24
2019-05-20T06:24:00.698Z,35.09
2019-05-20T06:26:31.893Z,35.25
2019-05-20T06:29:04.155Z,33.64
2019-05-20T06:31:35.113Z,34.00
2019-05-20T06:34:07.477Z,34.14
2019-05-20T06:36:40.588Z,33.99
2019-05-20T06:39:13.611Z,34.50
2019-05-20T06:41:44.576Z,33.16
2019-05-20T06:44:16.129Z,32.94
2019-05-20T06:46:47.051Z,32.79
2019-05-20T06:49:18.110Z,32.96
2019-05-20T06:51:48.641Z,33.46
2019-05-20T06:54:20.825Z,33.62
2019-05-20T06:56:53.904Z,32.92
2019-05-20T06:59:24.522Z,32.87
2019-05-20T07:01:55.777Z,32.93
2019-05-20T07:04:28.134Z,33.53
2019-05-20T07:07:12.475Z,32.68
2019-05-20T07:09:38.588Z,33.25
2019-05-20T07:12:10.488Z,33.59
2019-05-20T07:14:45.734Z,33.50
2019-05-20T07:17:20.394Z,33.44
2019-05-20T07:19:52.024Z,32.79
2019-05-20T07:22:27.490Z,33.15
2019-05-20T07:25:02.509Z,32.37
2019-05-20T07:27:35.035Z,32.31
2019-05-20T07:30:07.719Z,32.28
2019-05-20T07:32:40.535Z,32.07
2019-05-20T07:35:30.029Z,32.51
2019-05-20T07:37:53.557Z,32.07
2019-05-20T07:40:33.445Z,31.73
2019-05-20T07:43:08.818Z,31.71
2019-05-20T07:45:50.031Z,31.72
2019-05-20T07:48:25.073Z,31.97
2019-05-20T07:51:03.732Z,32.01
2019-05-20T07:56:35.969Z,30.39
2019-05-20T07:59:14.854Z,30.88
2019-05-20T08:01:49.928Z,29.55
2019-05-20T08:04:21.400Z,30.69
2019-05-20T08:06:54.444Z,29.50
2019-05-20T08:09:25.429Z,30.42
2019-05-20T08:11:56.627Z,29.38
2019-05-20T08:14:29.342Z,28.91
2019-05-20T08:17:00.250Z,28.97
2019-05-20T08:19:31.781Z,28.09
2019-05-20T08:22:05.704Z,28.48
2019-05-20T08:24:40.422Z,28.24
2019-05-20T08:27:13.546Z,27.52
2019-05-20T08:29:46.515Z,28.18
2019-05-20T08:32:19.227Z,26.61
2019-05-20T08:34:50.726Z,26.07
2019-05-20T08:37:21.665Z,27.64
2019-05-20T08:39:53.244Z,25.40
2019-05-20T08:42:23.882Z,26.18
2019-05-20T08:44:58.028Z,25.54
2019-05-20T08:47:31.868Z,24.97
2019-05-20T08:53:28.321Z,24.55
2019-05-20T08:56:02.670Z,24.57
2019-05-20T08:58:33.682Z,23.92
2019-05-20T09:01:04.775Z,24.01
2019-05-20T09:03:35.556Z,24.60
2019-05-20T09:06:06.680Z,23.21
2019-05-20T09:08:37.923Z,22.89
2019-05-20T09:11:09.237Z,22.42
2019-05-20T09:13:39.798Z,22.99
2019-05-20T09:16:12.169Z,23.06
2019-05-20T09:18:43.080Z,22.83
2019-05-20T09:21:14.343Z,23.63
2019-05-20T09:23:46.214Z,22.14
2019-05-20T09:26:18.791Z,22.68
2019-05-20T09:28:49.530Z,22.77
2019-05-20T09:31:23.228Z,21.32
2019-05-20T09:33:55.237Z,21.22
2019-05-20T09:36:26.217Z,22.34
2019-05-20T09:38:58.482Z,21.00
2019-05-20T09:41:29.259Z,20.53
2019-05-20T09:44:00.569Z,20.20
2019-05-20T09:46:32.536Z,20.64
2019-05-20T09:49:04.839Z,21.56
2019-05-20T09:51:35.893Z,20.08
2019-05-20T09:54:07.907Z,20.47
2019-05-20T09:56:38.663Z,19.40
2019-05-20T09:59:09.383Z,18.00
2019-05-20T10:01:40.538Z,18.65
2019-05-20T10:04:12.186Z,19.51
2019-05-20T10:06:46.706Z,19.40
2019-05-20T10:09:17.629Z,19.52
2019-05-20T10:11:49.908Z,19.91
2019-05-20T10:14:25.740Z,18.85
2019-05-20T10:16:59.058Z,19.83
2019-05-20T10:19:30.085Z,19.18
2019-05-20T10:22:00.712Z,19.79
2019-05-20T10:24:31.654Z,18.62
2019-05-20T10:27:04.121Z,18.43
2019-05-20T10:29:36.279Z,18.95
2019-05-20T10:32:07.238Z,17.50
2019-05-20T10:34:39.101Z,17.55
2019-05-20T10:37:10.219Z,17.30
2019-05-20T10:39:43.625Z,17.31
2019-05-20T10:42:14.131Z,17.03
2019-05-20T10:44:45.648Z,16.75
2019-05-20T10:47:16.370Z,16.64
2019-05-20T10:49:47.171Z,16.71
2019-05-20T10:52:18.204Z,16.41
2019-05-20T10:54:49.041Z,16.34
2019-05-20T10:57:20.795Z,16.51
2019-05-20T10:59:52.571Z,16.24
2019-05-20T11:02:23.389Z,16.19
2019-05-20T11:04:56.435Z,16.53
2019-05-20T11:07:27.125Z,15.68
2019-05-20T11:09:58.043Z,15.19
2019-05-20T11:12:29.608Z,14.92
2019-05-20T11:15:00.785Z,13.98
2019-05-20T11:17:32.041Z,14.04
2019-05-20T11:20:03.348Z,13.76
2019-05-20T11:22:34.172Z,13.27
2019-05-20T11:25:07.935Z,13.59
2019-05-20T11:27:38.882Z,13.97
2019-05-20T11:30:10.995Z,13.74
2019-05-20T11:32:43.888Z,13.19
2019-05-20T11:35:16.270Z,13.75
2019-05-20T11:37:46.853Z,13.61
2019-05-20T11:40:19.134Z,14.21
2019-05-20T11:42:49.964Z,13.60
2019-05-20T11:45:22.308Z,13.46
2019-05-20T11:47:52.976Z,13.21
2019-05-20T11:50:24.010Z,12.48
2019-05-20T11:52:54.548Z,12.13
2019-05-20T11:55:26.320Z,12.71
2019-05-20T11:58:14.532Z,12.55
2019-05-20T12:00:31.243Z,12.88
2019-05-20T12:03:03.013Z,13.16
2019-05-20T12:05:33.729Z,12.83
2019-05-20T12:08:04.773Z,12.77
2019-05-20T12:10:36.624Z,12.92
2019-05-20T12:13:07.358Z,12.73
2019-05-20T12:15:38.304Z,12.73
2019-05-20T12:18:10.696Z,12.44
2019-05-20T12:20:41.627Z,12.68
2019-05-20T12:23:15.519Z,12.81
2019-05-20T12:25:46.580Z,12.44
2019-05-20T12:28:17.716Z,13.17
2019-05-20T12:30:49.047Z,12.69
2019-05-20T12:33:20.043Z,12.71
2019-05-20T12:35:52.870Z,12.82
2019-05-20T12:38:24.985Z,13.32
2019-05-20T12:40:56.066Z,12.67
2019-05-20T12:43:26.961Z,12.81
2019-05-20T12:45:58.280Z,12.75
2019-05-20T12:48:29.383Z,12.60
2019-05-20T12:51:02.001Z,11.75
2019-05-20T12:53:33.760Z,11.75
2019-05-20T12:56:05.504Z,12.73
2019-05-20T12:58:36.327Z,12.23
2019-05-20T13:01:07.175Z,12.76
2019-05-20T13:03:38.101Z,12.30
2019-05-20T13:06:09.663Z,12.30
2019-05-20T13:08:42.756Z,11.87
2019-05-20T13:11:14.838Z,11.87
2019-05-20T13:13:45.755Z,11.80
2019-05-20T13:16:16.986Z,12.09
2019-05-20T13:18:55.906Z,12.10
2019-05-20T13:21:21.814Z,12.10
2019-05-20T13:23:52.679Z,12.45
2019-05-20T13:26:23.500Z,12.19
2019-05-20T13:28:54.228Z,12.65
2019-05-20T13:31:25.394Z,12.45
2019-05-20T13:33:56.443Z,12.39
2019-05-20T13:36:29.917Z,12.24
2019-05-20T13:39:00.544Z,12.31
2019-05-20T13:41:33.330Z,12.47
2019-05-20T13:44:04.155Z,12.14
2019-05-20T13:46:39.037Z,12.16
2019-05-20T13:49:10.242Z,12.41
2019-05-20T13:51:42.494Z,12.05
2019-05-20T13:54:14.863Z,11.57
2019-05-20T13:56:45.422Z,11.81
2019-05-20T13:59:16.537Z,12.46
2019-05-20T14:01:47.364Z,12.34
2019-05-20T14:04:19.449Z,12.80
2019-05-20T14:06:50.899Z,12.71
2019-05-20T14:09:22.840Z,12.65
2019-05-20T14:11:54.394Z,12.81
2019-05-20T14:14:25.090Z,13.34
2019-05-20T14:16:58.960Z,12.80
2019-05-20T14:19:30.485Z,13.25
2019-05-20T14:22:03.367Z,13.25
2019-05-20T14:24:36.324Z,13.24
2019-05-20T14:27:10.476Z,13.44
2019-05-20T14:29:41.414Z,13.09
2019-05-20T14:32:12.159Z,13.40
2019-05-20T14:34:43.535Z,13.24
2019-05-20T14:37:16.378Z,13.19
2019-05-20T14:39:47.019Z,13.60
2019-05-20T14:42:19.268Z,13.23
2019-05-20T14:44:50.198Z,13.23
2019-05-20T14:47:21.064Z,13.33
2019-05-20T14:49:53.973Z,13.83
2019-05-20T14:52:24.872Z,13.61
2019-05-20T14:54:56.674Z,13.39
2019-05-20T14:57:28.080Z,13.39
2019-05-20T14:59:58.933Z,13.34
2019-05-20T15:02:31.275Z,13.83
2019-05-20T15:05:02.565Z,13.71
2019-05-20T15:07:33.454Z,13.97
2019-05-20T15:10:09.212Z,13.97
2019-05-20T15:12:40.152Z,14.21
2019-05-20T15:15:12.105Z,14.16
2019-05-20T15:17:43.156Z,14.90
2019-05-20T15:20:15.717Z,14.71
2019-05-20T15:22:46.345Z,14.83
2019-05-20T15:25:17.592Z,15.80
2019-05-20T15:27:49.926Z,15.93
2019-05-20T15:30:22.028Z,15.90
2019-05-20T15:32:54.883Z,15.62
2019-05-20T15:35:25.693Z,16.20
2019-05-20T15:37:57.008Z,16.34
2019-05-20T15:40:29.480Z,16.52
2019-05-20T15:43:01.018Z,16.64
2019-05-20T15:45:33.292Z,16.30
2019-05-20T15:48:05.743Z,16.14
2019-05-20T15:50:36.897Z,16.56
2019-05-20T15:53:11.833Z,16.82
2019-05-20T15:55:40.819Z,17.07
2019-05-20T15:58:15.279Z,17.59
2019-05-20T16:00:47.932Z,17.61
2019-05-20T16:03:19.481Z,18.27
2019-05-20T16:05:50.393Z,18.41
2019-05-20T16:08:22.477Z,18.43
2019-05-20T16:10:53.417Z,18.63
2019-05-20T16:13:26.200Z,19.15
2019-05-20T16:15:57.270Z,18.65
2019-05-20T16:18:29.965Z,18.90
2019-05-20T16:21:00.389Z,19.14
2019-05-20T16:23:33.978Z,19.82
2019-05-20T16:26:04.795Z,20.50
2019-05-20T16:28:35.806Z,20.74
2019-05-20T16:31:06.247Z,20.75
2019-05-20T16:33:38.009Z,21.22
2019-05-20T16:36:11.178Z,21.69
2019-05-20T16:38:42.871Z,22.04
2019-05-20T16:41:13.666Z,22.04
2019-05-20T16:43:45.218Z,22.46
2019-05-20T16:46:18.244Z,22.52
2019-05-20T16:48:50.516Z,22.66
2019-05-20T16:51:22.809Z,22.85
2019-05-20T16:53:53.376Z,23.52
2019-05-20T16:56:24.216Z,24.15
2019-05-20T16:58:54.942Z,24.84
2019-05-20T17:01:25.677Z,24.96
2019-05-20T17:03:59.722Z,25.39
2019-05-20T17:06:30.647Z,25.80
2019-05-20T17:09:01.751Z,26.66
2019-05-20T17:11:34.879Z,27.34
2019-05-20T17:14:10.405Z,27.54
2019-05-20T17:16:41.337Z,27.58
2019-05-20T17:19:13.915Z,28.13
2019-05-20T17:21:46.489Z,28.58
2019-05-20T17:24:20.011Z,28.82
2019-05-20T17:26:52.746Z,28.87
2019-05-20T17:29:24.731Z,28.75
2019-05-20T17:31:55.666Z,29.16
2019-05-20T17:34:27.787Z,29.12
2019-05-20T17:36:58.639Z,29.71
2019-05-20T17:39:31.660Z,29.89
2019-05-20T17:42:03.611Z,30.26
2019-05-20T17:44:37.725Z,30.20
2019-05-20T17:47:09.588Z,30.56
2019-05-20T17:49:41.031Z,30.85
2019-05-20T17:52:12.889Z,30.95
2019-05-20T17:54:43.901Z,31.09
2019-05-20T17:57:15.483Z,31.04
2019-05-20T17:59:48.541Z,31.08
2019-05-20T18:02:20.951Z,31.03
2019-05-20T18:04:54.132Z,31.18
2019-05-20T18:07:28.037Z,31.41
2019-05-20T18:10:01.372Z,31.33
2019-05-20T18:12:32.598Z,31.63
2019-05-20T18:15:04.839Z,31.59
2019-05-20T18:17:35.777Z,31.95
2019-05-20T18:20:07.646Z,32.09
2019-05-20T18:22:40.430Z,32.33
2019-05-20T18:25:14.641Z,32.56
2019-05-20T18:27:46.496Z,32.72
2019-05-20T18:30:18.253Z,33.01
2019-05-20T18:32:48.772Z,33.25
2019-05-20T18:35:22.179Z,33.48
2019-05-20T18:37:55.562Z,33.62
2019-05-20T18:40:26.420Z,33.68
2019-05-20T18:43:00.527Z,33.94
2019-05-20T18:45:31.558Z,33.55
2019-05-20T18:48:05.251Z,33.57
2019-05-20T18:50:37.422Z,34.08
2019-05-20T18:53:09.228Z,33.87
2019-05-20T18:55:39.706Z,33.86
2019-05-20T18:58:12.999Z,33.53
2019-05-20T19:00:45.224Z,33.77
2019-05-20T19:03:17.432Z,33.53
2019-05-20T19:05:49.302Z,33.06
2019-05-20T19:08:19.919Z,33.42
2019-05-20T19:10:52.935Z,33.37
2019-05-20T19:13:23.843Z,33.53
2019-05-20T19:15:54.633Z,33.61
2019-05-20T19:18:25.612Z,33.65
2019-05-20T19:20:59.822Z,33.94
2019-05-20T19:23:32.714Z,34.28
2019-05-20T19:26:03.755Z,34.58
2019-05-20T19:28:36.637Z,34.57
2019-05-20T19:31:08.393Z,34.73
2019-05-20T19:33:39.740Z,34.80
2019-05-20T19:36:10.770Z,34.60
2019-05-20T19:38:43.763Z,34.82
2019-05-20T19:41:15.866Z,34.98
2019-05-20T19:43:47.178Z,35.26
2019-05-20T19:46:20.864Z,35.50
2019-05-20T19:48:53.141Z,35.63
2019-05-20T19:51:26.235Z,35.63
2019-05-20T19:53:58.911Z,35.64
2019-05-20T19:56:29.538Z,35.08
2019-05-20T19:59:00.684Z,34.93
2019-05-20T20:01:31.457Z,34.98
2019-05-20T20:04:02.661Z,34.90
2019-05-20T20:06:37.486Z,35.20
2019-05-20T20:09:08.944Z,35.39
2019-05-20T20:11:41.398Z,35.37
2019-05-20T20:14:13.442Z,35.57
2019-05-20T20:16:44.109Z,35.87
2019-05-20T20:19:17.404Z,35.96
2019-05-20T20:21:48.138Z,36.03
2019-05-20T20:24:22.651Z,36.05
2019-05-20T20:26:55.231Z,36.18
2019-05-20T20:29:27.484Z,36.09
2019-05-20T20:31:58.026Z,36.27
2019-05-20T20:34:32.986Z,36.41
2019-05-20T20:37:04.404Z,36.69
2019-05-20T20:39:34.936Z,36.47
2019-05-20T20:42:08.466Z,36.65
2019-05-20T20:44:39.879Z,36.55
2019-05-20T20:47:12.458Z,36.69
2019-05-20T20:49:43.492Z,36.62
2019-05-20T20:52:17.202Z,36.71
2019-05-20T20:54:50.183Z,36.80
2019-05-20T20:57:24.292Z,36.81
2019-05-20T20:59:55.743Z,36.92
2019-05-20T21:02:26.581Z,36.95
2019-05-20T21:04:57.257Z,37.06
2019-05-20T21:07:28.555Z,37.15
2019-05-20T21:09:59.708Z,37.28
2019-05-20T21:12:30.735Z,37.19
2019-05-20T21:15:05.760Z,37.45
2019-05-20T21:17:36.209Z,37.67
2019-05-20T21:20:09.285Z,37.77
2019-05-20T21:22:40.225Z,37.88
2019-05-20T21:25:11.159Z,38.20
2019-05-20T21:27:41.995Z,38.39
2019-05-20T21:30:14.923Z,38.59
2019-05-20T21:32:46.638Z,38.80
2019-05-20T21:35:18.038Z,39.00
2019-05-20T21:37:50.450Z,39.29
2019-05-20T21:40:21.083Z,39.14
2019-05-20T21:42:52.224Z,39.05
2019-05-20T21:45:23.474Z,39.36
2019-05-20T21:47:54.301Z,39.57
2019-05-20T21:50:28.413Z,39.62
2019-05-20T21:52:59.766Z,39.80
2019-05-20T21:55:31.315Z,40.08
2019-05-20T21:58:02.254Z,40.04
2019-05-20T22:00:38.921Z,40.27
2019-05-20T22:03:23.533Z,40.25
2019-05-20T22:05:44.690Z,40.55
2019-05-20T22:08:15.547Z,40.79
2019-05-20T22:10:47.276Z,40.89
2019-05-20T22:13:20.577Z,40.72
2019-05-20T22:15:53.458Z,41.01
2019-05-20T22:18:24.701Z,41.32
2019-05-20T22:20:56.066Z,41.43
2019-05-20T22:23:30.772Z,41.66
2019-05-20T22:26:01.618Z,41.68
2019-05-20T22:28:32.315Z,41.71
2019-05-20T22:31:04.713Z,41.98
2019-05-20T22:33:41.234Z,42.03
2019-05-20T22:36:07.933Z,41.78
2019-05-20T22:38:39.929Z,41.95
2019-05-20T22:41:13.064Z,41.74
2019-05-20T22:43:44.136Z,41.94
2019-05-20T22:46:16.787Z,41.61
2019-05-20T22:48:49.975Z,41.69
2019-05-20T22:51:23.788Z,41.95
2019-05-20T22:53:54.719Z,42.16
2019-05-20T22:56:25.557Z,42.24
2019-05-20T22:58:56.697Z,42.17
2019-05-20T23:01:28.590Z,42.19
2019-05-20T23:03:59.184Z,42.24
2019-05-20T23:06:32.388Z,42.46
2019-05-20T23:09:06.573Z,42.42
2019-05-20T23:11:37.034Z,42.28
2019-05-20T23:14:07.951Z,42.48
2019-05-20T23:16:38.892Z,42.68
2019-05-20T23:19:11.559Z,42.74
2019-05-20T23:21:42.093Z,42.75
2019-05-20T23:24:12.852Z,42.91
2019-05-20T23:26:43.956Z,42.90
2019-05-20T23:29:16.993Z,43.04
2019-05-20T23:31:48.405Z,42.80
2019-05-20T23:34:19.035Z,42.78
2019-05-20T23:36:49.763Z,42.79
2019-05-20T23:39:20.557Z,42.98
2019-05-20T23:41:51.979Z,43.30
2019-05-20T23:44:23.091Z,42.79
2019-05-20T23:46:55.369Z,43.27
2019-05-20T23:49:27.018Z,42.97
2019-05-20T23:51:58.063Z,43.35
2019-05-20T23:54:28.888Z,43.35
2019-05-20T23:57:01.878Z,43.47
2019-05-20T23:59:32.710Z,43.69
